createdAt,value
2022-11-03T00:00:20.347Z,7.69
2022-11-03T00:01:21.822Z,7.63
2022-11-03T00:02:23.436Z,7.71
2022-11-03T00:03:24.980Z,7.74
2022-11-03T00:04:26.497Z,7.81
2022-11-03T00:05:27.918Z,7.82
2022-11-03T00:06:29.400Z,7.67
2022-11-03T00:07:30.872Z,7.64
2022-11-03T00:08:33.950Z,7.36
2022-11-03T00:09:35.901Z,7.45
2022-11-03T00:10:37.340Z,7.36
2022-11-03T00:11:42.230Z,7.41
2022-11-03T00:12:43.675Z,7.38
2022-11-03T00:13:45.166Z,7.52
2022-11-03T00:14:46.619Z,7.49
2022-11-03T00:15:48.608Z,7.55
2022-11-03T00:16:50.047Z,7.53
2022-11-03T00:17:51.537Z,7.48
2022-11-03T00:18:53.297Z,7.55
2022-11-03T00:19:54.768Z,7.39
2022-11-03T00:20:58.258Z,7.28
2022-11-03T00:21:59.728Z,7.22
2022-11-03T00:23:01.161Z,7.14
2022-11-03T00:24:03.202Z,7.11
2022-11-03T00:25:05.499Z,6.96
2022-11-03T00:26:09.712Z,6.89
2022-11-03T00:27:12.465Z,6.85
2022-11-03T00:28:13.923Z,6.74
2022-11-03T00:29:15.480Z,6.70
2022-11-03T00:30:17.009Z,6.66
2022-11-03T00:31:20.318Z,6.63
2022-11-03T00:32:22.064Z,6.80
2022-11-03T00:33:23.536Z,6.99
2022-11-03T00:34:24.946Z,6.89
2022-11-03T00:35:26.386Z,6.88
2022-11-03T00:36:29.910Z,6.82
2022-11-03T00:37:31.401Z,6.73
2022-11-03T00:38:33.328Z,6.77
2022-11-03T00:39:34.847Z,6.67
2022-11-03T00:40:36.260Z,6.61
2022-11-03T00:41:37.882Z,6.50
2022-11-03T00:42:40.654Z,6.51
2022-11-03T00:43:42.178Z,6.33
2022-11-03T00:44:43.589Z,6.20
2022-11-03T00:45:45.055Z,6.27
2022-11-03T00:46:46.498Z,6.23
2022-11-03T00:47:48.007Z,6.25
2022-11-03T00:48:49.920Z,6.27
2022-11-03T00:49:51.365Z,6.32
2022-11-03T00:50:52.804Z,6.23
2022-11-03T00:51:54.249Z,6.21
2022-11-03T00:52:55.688Z,6.18
2022-11-03T00:53:58.375Z,6.18
2022-11-03T00:54:59.816Z,6.21
2022-11-03T00:56:01.722Z,6.23
2022-11-03T00:57:03.362Z,6.26
2022-11-03T00:58:06.143Z,6.39
2022-11-03T00:59:09.351Z,6.34
2022-11-03T01:00:11.965Z,6.26
2022-11-03T01:01:15.641Z,6.19
2022-11-03T01:02:17.277Z,6.15
2022-11-03T01:03:18.806Z,6.25
2022-11-03T01:04:20.323Z,6.44
2022-11-03T01:05:21.768Z,6.39
2022-11-03T01:06:23.200Z,6.40
2022-11-03T01:07:24.647Z,6.39
2022-11-03T01:08:27.705Z,6.55
2022-11-03T01:09:30.946Z,6.57
2022-11-03T01:10:36.326Z,6.63
2022-11-03T01:11:37.807Z,6.53
2022-11-03T01:12:39.242Z,6.46
2022-11-03T01:13:42.011Z,6.43
2022-11-03T01:14:45.840Z,6.43
2022-11-03T01:15:47.285Z,6.55
2022-11-03T01:16:48.758Z,6.50
2022-11-03T01:17:50.297Z,6.47
2022-11-03T01:18:51.743Z,6.53
2022-11-03T01:19:53.728Z,6.57
2022-11-03T01:20:55.695Z,6.60
2022-11-03T01:21:57.150Z,6.73
2022-11-03T01:22:58.563Z,6.71
2022-11-03T01:24:00.283Z,6.73
2022-11-03T01:25:01.709Z,6.82
2022-11-03T01:26:04.408Z,6.91
2022-11-03T01:27:05.858Z,6.67
2022-11-03T01:28:07.307Z,6.67
2022-11-03T01:29:10.139Z,6.56
2022-11-03T01:30:12.101Z,6.48
2022-11-03T01:31:15.766Z,6.51
2022-11-03T01:32:17.300Z,6.41
2022-11-03T01:33:18.753Z,6.45
2022-11-03T01:34:21.390Z,6.38
2022-11-03T01:35:22.832Z,6.38
2022-11-03T01:36:24.758Z,6.28
2022-11-03T01:37:26.227Z,6.32
2022-11-03T01:38:30.987Z,6.30
2022-11-03T01:39:32.452Z,6.38
2022-11-03T01:40:33.908Z,6.29
2022-11-03T01:41:35.429Z,6.29
2022-11-03T01:42:36.872Z,6.31
2022-11-03T01:43:39.788Z,6.32
2022-11-03T01:44:46.399Z,6.25
2022-11-03T01:45:51.065Z,6.29
2022-11-03T01:46:56.889Z,6.48
2022-11-03T01:49:09.667Z,6.68
2022-11-03T01:50:16.447Z,6.76
2022-11-03T01:51:22.603Z,6.83
2022-11-03T01:52:27.752Z,6.83
2022-11-03T01:53:30.390Z,6.78
2022-11-03T01:54:34.262Z,6.72
2022-11-03T01:55:37.847Z,6.86
2022-11-03T01:56:42.861Z,6.89
2022-11-03T01:57:50.581Z,6.78
2022-11-03T01:58:55.531Z,6.75
2022-11-03T01:59:59.467Z,6.91
2022-11-03T02:01:02.457Z,6.91
2022-11-03T02:02:04.487Z,6.87
2022-11-03T02:03:06.535Z,6.82
2022-11-03T02:04:12.845Z,6.75
2022-11-03T02:05:18.190Z,6.76
2022-11-03T02:06:21.503Z,6.77
2022-11-03T02:07:27.991Z,6.62
2022-11-03T02:08:35.024Z,6.76
2022-11-03T02:09:36.471Z,6.40
2022-11-03T02:10:38.523Z,6.20
2022-11-03T02:11:40.062Z,6.15
2022-11-03T02:12:43.202Z,6.37
2022-11-03T02:13:44.650Z,6.39
2022-11-03T02:14:54.010Z,6.18
2022-11-03T02:15:59.346Z,6.09
2022-11-03T02:17:04.184Z,5.92
2022-11-03T02:18:06.848Z,5.86
2022-11-03T02:19:21.307Z,5.85
2022-11-03T02:20:25.861Z,5.75
2022-11-03T02:21:30.954Z,5.82
2022-11-03T02:22:55.259Z,6.07
2022-11-03T02:24:04.387Z,6.02
2022-11-03T02:25:16.155Z,5.74
2022-11-03T02:26:19.287Z,5.74
2022-11-03T02:27:21.208Z,5.68
2022-11-03T02:28:25.438Z,5.67
2022-11-03T02:29:26.963Z,5.62
2022-11-03T02:30:34.012Z,5.59
2022-11-03T02:31:41.121Z,5.64
2022-11-03T02:32:57.194Z,5.58
2022-11-03T02:34:06.438Z,5.63
2022-11-03T02:35:15.815Z,5.65
2022-11-03T02:36:22.739Z,5.59
2022-11-03T02:37:28.811Z,5.57
2022-11-03T02:38:34.797Z,5.54
2022-11-03T02:39:40.346Z,5.51
2022-11-03T02:40:46.444Z,5.43
2022-11-03T02:41:52.508Z,5.33
2022-11-03T02:42:54.747Z,5.35
2022-11-03T02:43:57.538Z,5.29
2022-11-03T02:45:02.256Z,5.32
2022-11-03T02:46:06.087Z,5.23
2022-11-03T02:47:11.084Z,5.26
2022-11-03T02:48:15.355Z,5.25
2022-11-03T02:49:16.800Z,5.31
2022-11-03T02:50:18.266Z,5.41
2022-11-03T02:51:19.717Z,5.49
2022-11-03T02:52:34.546Z,5.54
2022-11-03T02:53:39.974Z,5.73
2022-11-03T02:54:45.224Z,5.89
2022-11-03T02:55:53.632Z,5.82
2022-11-03T02:57:02.274Z,5.80
2022-11-03T02:58:11.614Z,5.68
2022-11-03T02:59:17.936Z,5.61
2022-11-03T03:00:20.870Z,5.65
2022-11-03T03:01:29.005Z,5.67
2022-11-03T03:02:37.734Z,5.61
2022-11-03T03:03:43.185Z,5.62
2022-11-03T03:04:51.371Z,5.63
2022-11-03T03:05:59.475Z,5.63
2022-11-03T03:07:05.067Z,5.71
2022-11-03T03:08:10.282Z,5.75
2022-11-03T03:09:18.529Z,5.79
2022-11-03T03:10:23.620Z,5.79
2022-11-03T03:11:25.202Z,5.85
2022-11-03T03:12:30.923Z,5.98
2022-11-03T03:13:32.812Z,5.99
2022-11-03T03:14:37.495Z,6.16
2022-11-03T03:15:45.165Z,6.27
2022-11-03T03:16:55.082Z,6.37
2022-11-03T03:18:07.171Z,6.42
2022-11-03T03:19:18.603Z,6.45
2022-11-03T03:20:22.669Z,6.51
2022-11-03T03:21:29.330Z,6.58
2022-11-03T03:22:38.590Z,6.37
2022-11-03T03:23:45.933Z,6.51
2022-11-03T03:24:53.358Z,6.58
2022-11-03T03:25:59.878Z,6.60
2022-11-03T03:27:05.210Z,6.64
2022-11-03T03:28:11.227Z,6.70
2022-11-03T03:29:18.004Z,6.77
2022-11-03T03:30:19.693Z,6.81
2022-11-03T03:31:24.820Z,6.82
2022-11-03T03:32:30.398Z,6.84
2022-11-03T03:33:33.585Z,6.87
2022-11-03T03:34:39.460Z,6.91
2022-11-03T03:35:44.445Z,6.70
2022-11-03T03:36:49.083Z,6.50
2022-11-03T03:37:53.160Z,6.41
2022-11-03T03:38:59.095Z,6.35
2022-11-03T03:40:05.341Z,6.29
2022-11-03T03:41:10.942Z,6.22
2022-11-03T03:42:15.596Z,6.18
2022-11-03T03:43:21.763Z,6.29
2022-11-03T03:44:24.672Z,6.38
2022-11-03T03:45:26.731Z,6.38
2022-11-03T03:46:34.833Z,6.35
2022-11-03T03:47:36.600Z,6.37
2022-11-03T03:48:38.102Z,6.31
2022-11-03T03:49:39.885Z,6.46
2022-11-03T03:50:43.792Z,6.60
2022-11-03T03:51:46.474Z,6.55
2022-11-03T03:52:48.847Z,6.52
2022-11-03T03:53:50.771Z,6.46
2022-11-03T03:54:52.522Z,6.28
2022-11-03T03:55:54.129Z,6.13
2022-11-03T03:57:00.608Z,6.05
2022-11-03T03:58:04.042Z,6.05
2022-11-03T03:59:07.019Z,6.11
2022-11-03T04:00:12.310Z,6.04
2022-11-03T04:01:13.767Z,5.79
2022-11-03T04:02:16.065Z,5.71
2022-11-03T04:03:19.757Z,5.75
2022-11-03T04:04:21.378Z,5.85
2022-11-03T04:05:22.821Z,5.82
2022-11-03T04:06:24.236Z,5.91
2022-11-03T04:07:25.710Z,5.88
2022-11-03T04:08:27.174Z,5.76
2022-11-03T04:09:28.578Z,5.75
2022-11-03T04:10:30.003Z,5.72
2022-11-03T04:11:31.433Z,5.63
2022-11-03T04:12:32.909Z,5.61
2022-11-03T04:13:34.384Z,5.75
2022-11-03T04:14:37.151Z,5.72
2022-11-03T04:15:38.601Z,5.65
2022-11-03T04:16:40.048Z,5.90
2022-11-03T04:17:44.304Z,5.98
2022-11-03T04:18:45.730Z,6.07
2022-11-03T04:19:47.126Z,6.15
2022-11-03T04:20:48.568Z,6.16
2022-11-03T04:21:50.078Z,6.15
2022-11-03T04:22:51.508Z,6.22
2022-11-03T04:23:52.940Z,6.21
2022-11-03T04:24:54.393Z,6.03
2022-11-03T04:25:57.114Z,5.81
2022-11-03T04:27:18.224Z,5.56
2022-11-03T04:28:19.685Z,5.39
2022-11-03T04:29:21.106Z,5.17
2022-11-03T04:30:24.500Z,5.11
2022-11-03T04:31:26.953Z,5.13
2022-11-03T04:32:28.822Z,5.06
2022-11-03T04:33:30.333Z,4.88
2022-11-03T04:34:31.724Z,4.81
2022-11-03T04:35:33.148Z,4.79
2022-11-03T04:36:34.592Z,4.74
2022-11-03T04:37:36.034Z,4.64
2022-11-03T04:38:37.916Z,4.38
2022-11-03T04:39:39.849Z,4.25
2022-11-03T04:40:43.099Z,4.18
2022-11-03T04:41:44.966Z,4.22
2022-11-03T04:42:46.462Z,4.25
2022-11-03T04:43:49.801Z,4.24
2022-11-03T04:44:51.422Z,4.24
2022-11-03T04:45:54.179Z,4.24
2022-11-03T04:46:55.646Z,4.29
2022-11-03T04:47:59.612Z,4.32
2022-11-03T04:49:03.975Z,4.39
2022-11-03T04:50:14.918Z,4.29
2022-11-03T04:51:18.100Z,4.25
2022-11-03T04:52:22.036Z,4.08
2022-11-03T04:53:24.323Z,4.01
2022-11-03T04:54:26.144Z,3.97
2022-11-03T04:55:27.607Z,3.84
2022-11-03T04:56:30.050Z,3.77
2022-11-03T04:57:31.505Z,3.82
2022-11-03T04:58:35.199Z,3.80
2022-11-03T04:59:36.688Z,3.75
2022-11-03T05:00:39.359Z,3.81
2022-11-03T05:01:44.105Z,3.77
2022-11-03T05:02:50.254Z,3.80
2022-11-03T05:03:54.808Z,3.88
2022-11-03T05:04:56.363Z,3.87
2022-11-03T05:06:01.387Z,3.76
2022-11-03T05:07:02.922Z,3.73
2022-11-03T05:08:08.657Z,3.61
2022-11-03T05:09:14.797Z,3.61
2022-11-03T05:10:19.093Z,3.48
2022-11-03T05:11:30.252Z,3.43
2022-11-03T05:12:31.773Z,3.42
2022-11-03T05:13:33.212Z,3.50
2022-11-03T05:14:36.735Z,3.49
2022-11-03T05:15:43.389Z,3.62
2022-11-03T05:16:46.764Z,3.67
2022-11-03T05:17:48.314Z,3.49
2022-11-03T05:18:50.070Z,3.31
2022-11-03T05:19:56.462Z,3.66
2022-11-03T05:21:00.131Z,3.90
2022-11-03T05:22:03.727Z,3.94
2022-11-03T05:23:05.821Z,4.00
2022-11-03T05:24:13.084Z,4.06
2022-11-03T05:25:38.466Z,4.02
2022-11-03T05:26:40.331Z,4.01
2022-11-03T05:27:41.826Z,3.94
2022-11-03T05:28:46.063Z,4.18
2022-11-03T05:29:49.497Z,4.21
2022-11-03T05:30:51.968Z,4.33
2022-11-03T05:31:56.334Z,4.35
2022-11-03T05:32:58.156Z,4.40
2022-11-03T05:34:02.869Z,4.47
2022-11-03T05:35:16.011Z,4.50
2022-11-03T05:36:21.581Z,4.27
2022-11-03T05:37:27.399Z,4.03
2022-11-03T05:38:31.516Z,3.89
2022-11-03T05:39:36.760Z,3.73
2022-11-03T05:40:38.200Z,3.69
2022-11-03T05:41:39.677Z,3.63
2022-11-03T05:42:43.827Z,3.52
2022-11-03T05:43:47.501Z,3.50
2022-11-03T05:44:50.270Z,3.48
2022-11-03T05:45:55.283Z,3.41
2022-11-03T05:47:00.976Z,3.40
2022-11-03T05:48:14.384Z,3.43
2022-11-03T05:49:15.930Z,3.49
2022-11-03T05:50:20.946Z,3.48
2022-11-03T05:51:28.420Z,3.54
2022-11-03T05:52:30.030Z,3.74
2022-11-03T05:53:36.682Z,3.75
2022-11-03T05:54:38.174Z,3.88
2022-11-03T05:55:40.061Z,3.94
2022-11-03T05:56:41.564Z,3.95
2022-11-03T05:57:43.007Z,3.99
2022-11-03T05:58:46.098Z,3.92
2022-11-03T05:59:51.229Z,3.89
2022-11-03T06:00:53.220Z,3.83
2022-11-03T06:01:59.053Z,4.00
2022-11-03T06:03:02.127Z,4.07
2022-11-03T06:04:15.250Z,3.90
2022-11-03T06:05:20.587Z,4.08
2022-11-03T06:06:30.812Z,4.02
2022-11-03T06:07:34.308Z,3.88
2022-11-03T06:08:38.945Z,3.84
2022-11-03T06:09:43.159Z,3.81
2022-11-03T06:10:49.501Z,3.96
2022-11-03T06:11:53.330Z,4.09
2022-11-03T06:12:56.867Z,3.96
2022-11-03T06:13:59.240Z,3.79
2022-11-03T06:15:00.665Z,3.78
2022-11-03T06:16:05.387Z,3.79
2022-11-03T06:17:11.992Z,3.68
2022-11-03T06:18:18.715Z,3.66
2022-11-03T06:19:26.806Z,3.63
2022-11-03T06:20:28.794Z,3.56
2022-11-03T06:21:30.569Z,3.46
2022-11-03T06:22:36.749Z,3.38
2022-11-03T06:23:39.271Z,3.32
2022-11-03T06:24:40.982Z,3.31
2022-11-03T06:25:42.824Z,3.38
2022-11-03T06:26:46.290Z,3.32
2022-11-03T06:27:47.848Z,3.19
2022-11-03T06:28:49.773Z,3.16
2022-11-03T06:29:57.185Z,3.20
2022-11-03T06:30:58.923Z,3.24
2022-11-03T06:32:01.004Z,3.23
2022-11-03T06:33:10.552Z,3.27
2022-11-03T06:34:22.446Z,3.23
2022-11-03T06:35:24.120Z,3.04
2022-11-03T06:36:29.962Z,3.30
2022-11-03T06:37:33.033Z,3.46
2022-11-03T06:38:35.183Z,3.30
2022-11-03T06:39:36.698Z,3.27
2022-11-03T06:40:38.295Z,3.37
2022-11-03T06:41:39.879Z,3.42
2022-11-03T06:42:41.978Z,3.33
2022-11-03T06:43:43.549Z,3.24
2022-11-03T06:44:47.170Z,3.37
2022-11-03T06:45:50.760Z,3.22
2022-11-03T06:46:54.738Z,3.22
2022-11-03T06:47:56.245Z,3.26
2022-11-03T06:49:00.238Z,3.35
2022-11-03T06:50:19.792Z,3.65
2022-11-03T06:51:23.883Z,3.66
2022-11-03T06:52:28.420Z,3.58
2022-11-03T06:53:33.519Z,3.67
2022-11-03T06:54:35.046Z,3.73
2022-11-03T06:55:37.723Z,3.92
2022-11-03T06:56:39.252Z,3.91
2022-11-03T06:57:43.917Z,3.94
2022-11-03T06:58:46.559Z,4.15
2022-11-03T06:59:53.535Z,4.30
2022-11-03T07:01:12.496Z,4.45
2022-11-03T07:02:34.219Z,4.52
2022-11-03T07:03:35.604Z,4.59
2022-11-03T07:04:37.040Z,4.39
2022-11-03T07:05:40.344Z,4.53
2022-11-03T07:06:43.290Z,4.68
2022-11-03T07:07:44.758Z,4.78
2022-11-03T07:08:49.671Z,4.83
2022-11-03T07:09:51.116Z,4.80
2022-11-03T07:11:00.081Z,4.87
2022-11-03T07:12:01.538Z,4.75
2022-11-03T07:13:13.204Z,4.76
2022-11-03T07:14:18.171Z,4.43
2022-11-03T07:15:25.693Z,4.58
2022-11-03T07:16:31.218Z,4.68
2022-11-03T07:17:34.238Z,4.39
2022-11-03T07:18:41.008Z,4.69
2022-11-03T07:19:45.439Z,4.86
2022-11-03T07:20:48.671Z,4.83
2022-11-03T07:21:52.740Z,4.94
2022-11-03T07:22:56.362Z,4.84
2022-11-03T07:24:00.507Z,5.02
2022-11-03T07:25:03.881Z,5.01
2022-11-03T07:26:08.448Z,4.92
2022-11-03T07:27:16.166Z,5.16
2022-11-03T07:28:17.803Z,5.13
2022-11-03T07:29:24.955Z,5.25
2022-11-03T07:30:29.296Z,5.26
2022-11-03T07:31:31.692Z,5.03
2022-11-03T07:32:34.262Z,5.06
2022-11-03T07:33:35.705Z,5.24
2022-11-03T07:34:37.145Z,5.37
2022-11-03T07:36:13.227Z,5.39
2022-11-03T07:37:05.309Z,5.32
2022-11-03T07:38:13.112Z,5.48
2022-11-03T07:39:19.072Z,5.58
2022-11-03T07:40:23.444Z,5.35
2022-11-03T07:41:32.809Z,5.32
2022-11-03T07:42:36.072Z,5.36
2022-11-03T07:43:37.494Z,5.63
2022-11-03T07:44:40.263Z,5.69
2022-11-03T07:45:43.607Z,5.67
2022-11-03T07:46:45.061Z,5.65
2022-11-03T07:47:46.478Z,5.82
2022-11-03T07:48:48.976Z,5.71
2022-11-03T07:49:50.437Z,5.33
2022-11-03T07:50:53.892Z,5.42
2022-11-03T07:51:56.605Z,5.31
2022-11-03T07:52:59.648Z,5.46
2022-11-03T07:54:09.167Z,5.65
2022-11-03T07:55:13.597Z,5.72
2022-11-03T07:56:19.146Z,5.82
2022-11-03T07:57:24.578Z,5.81
2022-11-03T07:58:34.802Z,5.85
2022-11-03T07:59:38.912Z,5.97
2022-11-03T08:00:40.395Z,6.00
2022-11-03T08:01:43.857Z,6.03
2022-11-03T08:02:50.078Z,5.92
2022-11-03T08:03:52.656Z,6.06
2022-11-03T08:04:54.063Z,6.16
2022-11-03T08:05:55.465Z,6.21
2022-11-03T08:06:57.300Z,5.86
2022-11-03T08:08:00.105Z,6.02
2022-11-03T08:09:01.684Z,6.07
2022-11-03T08:10:03.415Z,6.21
2022-11-03T08:11:05.590Z,5.98
2022-11-03T08:12:07.330Z,6.01
2022-11-03T08:13:08.976Z,5.94
2022-11-03T08:14:10.586Z,5.97
2022-11-03T08:15:12.019Z,5.95
2022-11-03T08:16:13.426Z,5.95
2022-11-03T08:17:14.990Z,6.05
2022-11-03T08:18:16.443Z,6.11
2022-11-03T08:19:17.872Z,6.27
2022-11-03T08:20:19.312Z,6.34
2022-11-03T08:21:20.746Z,6.33
2022-11-03T08:22:22.174Z,6.44
2022-11-03T08:23:26.336Z,6.52
2022-11-03T08:24:28.128Z,6.36
2022-11-03T08:25:29.580Z,6.44
2022-11-03T08:26:31.004Z,6.40
2022-11-03T08:27:32.488Z,6.27
2022-11-03T08:28:34.341Z,6.54
2022-11-03T08:29:35.840Z,6.03
2022-11-03T08:30:37.278Z,6.10
2022-11-03T08:31:38.751Z,6.24
2022-11-03T08:32:40.182Z,6.34
2022-11-03T08:33:41.651Z,6.14
2022-11-03T08:34:43.228Z,6.25
2022-11-03T08:35:44.700Z,6.31
2022-11-03T08:36:46.518Z,6.46
2022-11-03T08:37:48.011Z,6.29
2022-11-03T08:38:50.832Z,5.97
2022-11-03T08:39:52.242Z,6.37
2022-11-03T08:40:55.388Z,6.42
2022-11-03T08:41:56.909Z,6.54
2022-11-03T08:42:58.544Z,6.62
2022-11-03T08:43:59.968Z,6.63
2022-11-03T08:45:01.836Z,6.41
2022-11-03T08:46:15.466Z,6.48
2022-11-03T08:47:18.999Z,6.33
2022-11-03T08:48:20.734Z,6.27
2022-11-03T08:49:22.162Z,6.32
2022-11-03T08:50:23.986Z,6.05
2022-11-03T08:51:25.443Z,5.97
2022-11-03T08:52:26.931Z,6.49
2022-11-03T08:53:28.386Z,6.40
2022-11-03T08:54:31.145Z,6.64
2022-11-03T08:55:32.597Z,6.63
2022-11-03T08:56:34.051Z,6.48
2022-11-03T08:57:35.475Z,6.50
2022-11-03T08:58:36.907Z,6.52
2022-11-03T08:59:38.340Z,6.45
2022-11-03T09:00:41.168Z,6.62
2022-11-03T09:01:42.938Z,6.79
2022-11-03T09:02:44.888Z,6.60
2022-11-03T09:03:46.465Z,6.64
2022-11-03T09:04:48.054Z,6.75
2022-11-03T09:05:49.779Z,6.84
2022-11-03T09:06:51.214Z,6.82
2022-11-03T09:10:42.189Z,6.48
2022-11-03T09:11:43.962Z,6.82
2022-11-03T09:12:45.417Z,6.87
2022-11-03T09:13:46.839Z,6.89
2022-11-03T09:14:48.331Z,6.72
2022-11-03T09:15:49.956Z,6.37
2022-11-03T09:16:51.440Z,6.36
2022-11-03T09:17:53.000Z,6.53
2022-11-03T09:18:54.469Z,6.83
2022-11-03T09:19:55.920Z,6.71
2022-11-03T09:20:57.331Z,6.63
2022-11-03T09:21:58.783Z,6.71
2022-11-03T09:23:00.684Z,6.88
2022-11-03T09:24:02.141Z,6.61
2022-11-03T09:25:03.960Z,6.52
2022-11-03T09:26:06.848Z,6.80
2022-11-03T09:27:08.491Z,6.99
2022-11-03T09:28:10.204Z,7.02
2022-11-03T09:29:11.821Z,6.88
2022-11-03T09:30:14.307Z,7.03
2022-11-03T09:31:16.220Z,7.32
2022-11-03T09:32:22.768Z,7.20
2022-11-03T09:33:24.876Z,7.19
2022-11-03T09:34:26.294Z,7.28
2022-11-03T09:35:27.716Z,7.39
2022-11-03T09:36:29.153Z,7.42
2022-11-03T09:37:31.668Z,7.37
2022-11-03T09:38:33.117Z,7.39
2022-11-03T09:39:34.619Z,7.45
2022-11-03T09:40:36.301Z,7.30
2022-11-03T09:41:57.946Z,7.08
2022-11-03T09:43:00.569Z,6.89
2022-11-03T09:44:02.474Z,7.22
2022-11-03T09:45:04.894Z,7.25
2022-11-03T09:46:06.356Z,7.39
2022-11-03T09:47:17.300Z,7.49
2022-11-03T09:48:18.768Z,7.46
2022-11-03T09:49:21.234Z,7.42
2022-11-03T09:50:22.928Z,7.18
2022-11-03T09:51:26.906Z,7.19
2022-11-03T09:52:28.376Z,7.33
2022-11-03T09:53:30.955Z,7.57
2022-11-03T09:54:32.699Z,7.62
2022-11-03T09:55:35.035Z,7.74
2022-11-03T09:56:36.563Z,7.80
2022-11-03T09:57:39.304Z,7.85
2022-11-03T09:58:41.244Z,7.53
2022-11-03T09:59:44.710Z,7.59
2022-11-03T10:00:46.320Z,7.55
2022-11-03T10:01:50.237Z,7.79
2022-11-03T10:02:51.734Z,7.91
2022-11-03T10:03:57.334Z,7.76
2022-11-03T10:05:04.282Z,7.49
2022-11-03T10:06:11.037Z,7.57
2022-11-03T10:07:15.883Z,7.37
2022-11-03T10:08:24.099Z,7.61
2022-11-03T10:09:27.749Z,7.80
2022-11-03T10:10:30.218Z,7.67
2022-11-03T10:11:31.700Z,7.84
2022-11-03T10:12:37.325Z,7.90
2022-11-03T10:13:42.495Z,7.87
2022-11-03T10:14:45.843Z,7.93
2022-11-03T10:15:47.297Z,7.85
2022-11-03T10:16:55.720Z,7.75
2022-11-03T10:17:57.333Z,7.72
2022-11-03T10:18:58.862Z,7.75
2022-11-03T10:20:01.945Z,7.71
2022-11-03T10:21:06.052Z,7.34
2022-11-03T10:22:07.659Z,7.37
2022-11-03T10:23:09.403Z,7.51
2022-11-03T10:24:11.679Z,7.45
2022-11-03T10:25:33.294Z,7.53
2022-11-03T10:26:44.267Z,7.61
2022-11-03T10:27:45.733Z,7.72
2022-11-03T10:28:59.720Z,7.64
2022-11-03T10:30:06.805Z,7.65
2022-11-03T10:31:19.666Z,7.52
2022-11-03T10:32:30.129Z,7.56
2022-11-03T10:33:33.201Z,7.59
2022-11-03T10:34:36.370Z,7.55
2022-11-03T10:35:37.815Z,7.36
2022-11-03T10:36:39.259Z,7.56
2022-11-03T10:37:40.698Z,7.59
2022-11-03T10:38:42.401Z,7.56
2022-11-03T10:39:44.741Z,7.40
2022-11-03T10:40:48.454Z,7.26
2022-11-03T10:41:56.221Z,7.23
2022-11-03T10:42:58.790Z,7.25
2022-11-03T10:44:04.167Z,7.58
2022-11-03T10:45:15.734Z,7.42
2022-11-03T10:47:41.306Z,7.80
2022-11-03T10:48:42.943Z,7.92
2022-11-03T10:49:44.376Z,7.96
2022-11-03T10:50:45.863Z,7.80
2022-11-03T10:51:49.249Z,7.77
2022-11-03T10:52:51.231Z,8.03
2022-11-03T10:53:52.713Z,8.05
2022-11-03T10:54:57.525Z,7.86
2022-11-03T10:55:59.541Z,7.98
2022-11-03T10:57:01.252Z,8.11
2022-11-03T10:58:02.752Z,8.16
2022-11-03T10:59:05.613Z,8.36
2022-11-03T11:00:12.740Z,8.27
2022-11-03T11:01:14.354Z,8.31
2022-11-03T11:02:19.299Z,8.43
2022-11-03T11:03:21.213Z,8.48
2022-11-03T11:04:22.857Z,8.30
2022-11-03T11:05:24.747Z,8.32
2022-11-03T11:06:28.405Z,8.50
2022-11-03T11:07:34.432Z,8.59
2022-11-03T11:08:37.498Z,8.60
2022-11-03T11:09:38.964Z,8.33
2022-11-03T11:10:44.280Z,8.65
2022-11-03T11:11:59.167Z,8.41
2022-11-03T11:13:06.870Z,8.22
2022-11-03T11:14:23.525Z,8.38
2022-11-03T11:15:40.977Z,8.56
2022-11-03T11:16:50.436Z,8.40
2022-11-03T11:17:51.895Z,8.47
2022-11-03T11:19:11.228Z,8.34
2022-11-03T11:20:34.931Z,8.31
2022-11-03T11:22:00.541Z,8.26
2022-11-03T11:23:46.705Z,8.41
2022-11-03T11:24:59.299Z,8.46
2022-11-03T11:26:14.266Z,8.52
2022-11-03T11:27:58.322Z,8.55
2022-11-03T11:29:42.854Z,8.36
2022-11-03T11:31:00.507Z,8.59
2022-11-03T11:32:50.751Z,8.64
2022-11-03T11:34:40.651Z,8.34
2022-11-03T11:36:26.557Z,7.83
2022-11-03T11:37:36.036Z,7.89
2022-11-03T11:39:04.464Z,7.81
2022-11-03T11:40:13.197Z,7.98
2022-11-03T11:41:14.691Z,7.80
2022-11-03T11:42:17.092Z,8.08
2022-11-03T11:43:26.176Z,7.87
2022-11-03T11:44:47.619Z,7.89
2022-11-03T11:46:38.451Z,7.74
2022-11-03T11:47:48.498Z,7.80
2022-11-03T11:48:50.758Z,7.88
2022-11-03T11:50:11.991Z,7.83
2022-11-03T11:51:13.498Z,7.93
2022-11-03T11:52:18.766Z,7.86
2022-11-03T11:53:26.137Z,8.07
2022-11-03T11:54:30.618Z,7.86
2022-11-03T11:55:38.312Z,8.05
2022-11-03T11:56:42.511Z,7.91
2022-11-03T11:57:44.762Z,8.03
2022-11-03T11:58:48.961Z,7.99
2022-11-03T11:59:51.482Z,7.81
2022-11-03T12:00:58.266Z,8.03
2022-11-03T12:02:01.886Z,7.99
2022-11-03T12:03:06.308Z,8.10
2022-11-03T12:05:23.290Z,7.56
2022-11-03T12:06:34.257Z,7.84
2022-11-03T12:07:36.666Z,7.93
2022-11-03T12:08:38.338Z,8.04
2022-11-03T12:09:40.088Z,7.99
2022-11-03T12:10:52.455Z,8.01
2022-11-03T12:11:56.497Z,7.91
2022-11-03T12:12:59.894Z,7.92
2022-11-03T12:14:01.373Z,7.79
2022-11-03T12:15:03.059Z,7.97
2022-11-03T12:16:04.993Z,7.93
2022-11-03T12:17:33.265Z,7.92
2022-11-03T12:18:40.793Z,7.98
2022-11-03T12:19:45.920Z,8.01
2022-11-03T12:20:47.385Z,8.09
2022-11-03T12:21:49.933Z,8.05
2022-11-03T12:22:51.379Z,8.29
2022-11-03T12:23:52.841Z,8.20
2022-11-03T12:24:55.155Z,8.12
2022-11-03T12:25:56.597Z,8.11
2022-11-03T12:26:58.581Z,8.04
2022-11-03T12:28:00.046Z,7.96
2022-11-03T12:29:01.514Z,7.99
2022-11-03T12:30:06.726Z,7.89
2022-11-03T12:31:08.204Z,7.97
2022-11-03T12:32:25.594Z,7.96
2022-11-03T12:33:32.637Z,7.88
2022-11-03T12:34:34.043Z,7.67
2022-11-03T12:35:35.487Z,7.76
2022-11-03T12:36:36.908Z,7.75
2022-11-03T12:37:38.368Z,7.82
2022-11-03T12:38:39.780Z,7.89
2022-11-03T12:39:41.402Z,7.60
2022-11-03T12:40:42.851Z,7.73
2022-11-03T12:41:44.292Z,7.71
2022-11-03T12:42:45.737Z,7.67
2022-11-03T12:43:48.493Z,7.62
2022-11-03T12:44:50.251Z,7.79
2022-11-03T12:45:51.691Z,7.67
2022-11-03T12:46:53.128Z,7.82
2022-11-03T12:47:54.596Z,7.52
2022-11-03T12:48:57.377Z,7.69
2022-11-03T12:49:58.830Z,7.66
2022-11-03T12:51:00.273Z,7.97
2022-11-03T12:52:05.355Z,8.03
2022-11-03T12:53:09.797Z,7.84
2022-11-03T12:54:11.438Z,7.93
2022-11-03T12:55:12.971Z,8.08
2022-11-03T12:56:15.306Z,7.97
2022-11-03T12:57:16.909Z,8.12
2022-11-03T12:58:18.373Z,8.11
2022-11-03T12:59:19.853Z,8.09
2022-11-03T13:00:21.529Z,8.14
2022-11-03T13:01:23.083Z,8.33
2022-11-03T13:02:24.828Z,8.14
2022-11-03T13:03:26.523Z,8.07
2022-11-03T13:04:29.314Z,8.17
2022-11-03T13:05:30.759Z,8.16
2022-11-03T13:06:32.843Z,8.20
2022-11-03T13:07:35.120Z,8.26
2022-11-03T13:08:37.715Z,8.15
2022-11-03T13:09:39.236Z,8.20
2022-11-03T13:10:40.663Z,8.20
2022-11-03T13:11:42.087Z,8.30
2022-11-03T13:12:43.560Z,8.30
2022-11-03T13:13:45.229Z,8.15
2022-11-03T13:14:48.726Z,8.15
2022-11-03T13:15:50.502Z,8.22
2022-11-03T13:16:51.975Z,8.25
2022-11-03T13:18:12.210Z,8.30
2022-11-03T13:19:14.871Z,8.35
2022-11-03T13:20:17.712Z,8.33
2022-11-03T13:21:19.159Z,8.18
2022-11-03T13:22:20.783Z,8.19
2022-11-03T13:23:23.247Z,8.03
2022-11-03T13:24:24.795Z,8.15
2022-11-03T13:25:26.347Z,8.20
2022-11-03T13:26:27.893Z,8.18
2022-11-03T13:27:29.331Z,8.13
2022-11-03T13:28:30.776Z,8.10
2022-11-03T13:29:35.312Z,8.00
2022-11-03T13:30:37.257Z,8.11
2022-11-03T13:31:38.911Z,8.20
2022-11-03T13:32:40.319Z,8.33
2022-11-03T13:33:41.739Z,8.05
2022-11-03T13:34:43.225Z,8.35
2022-11-03T13:35:46.059Z,8.48
2022-11-03T13:36:47.613Z,8.45
2022-11-03T13:37:49.082Z,8.54
2022-11-03T13:38:50.500Z,8.66
2022-11-03T13:39:51.912Z,8.46
2022-11-03T13:40:59.186Z,8.64
2022-11-03T13:42:05.289Z,8.53
2022-11-03T13:43:07.182Z,8.58
2022-11-03T13:44:08.873Z,8.67
2022-11-03T13:45:10.956Z,8.56
2022-11-03T13:46:12.360Z,8.37
2022-11-03T13:47:13.865Z,8.40
2022-11-03T13:49:21.421Z,8.32
2022-11-03T13:50:07.687Z,8.37
2022-11-03T13:50:59.485Z,8.21
2022-11-03T13:52:01.205Z,8.05
2022-11-03T13:55:45.561Z,8.08
2022-11-03T13:59:30.060Z,8.20
2022-11-03T14:00:31.504Z,8.27
2022-11-03T14:01:33.517Z,8.15
2022-11-03T14:05:18.787Z,7.95
2022-11-03T14:06:21.560Z,8.03
2022-11-03T14:07:23.011Z,7.96
2022-11-03T14:08:24.403Z,7.73
2022-11-03T14:09:26.113Z,7.96
2022-11-03T14:10:27.567Z,8.01
2022-11-03T14:11:29.026Z,8.10
2022-11-03T14:12:30.498Z,8.21
2022-11-03T14:13:31.921Z,8.30
2022-11-03T14:14:33.378Z,8.37
2022-11-03T14:15:34.859Z,8.28
2022-11-03T14:16:36.390Z,8.38
2022-11-03T14:17:38.390Z,8.33
2022-11-03T14:18:39.835Z,8.36
2022-11-03T14:19:46.018Z,8.44
2022-11-03T14:20:48.906Z,8.47
2022-11-03T14:21:51.716Z,8.49
2022-11-03T14:22:53.153Z,8.38
2022-11-03T14:23:54.628Z,8.42
2022-11-03T14:24:56.040Z,8.27
2022-11-03T14:26:13.024Z,8.38
2022-11-03T14:27:19.772Z,8.34
2022-11-03T14:28:26.014Z,8.35
2022-11-03T14:29:27.816Z,8.25
2022-11-03T14:30:29.286Z,8.15